Time;durP1;ratioP1;P1;durP2;ratioP2;P2;SDS_P1;SDS_P2;PMS_P1;PMS_P2;Temp;Humidity;BMP_temperature;BMP_pressure;BME280_temperature;BME280_humidity;BME280_pressure;Samples;Min_cycle;Max_cycle;Signal;HPM_P1;HPM_P2
2023/12/27 00:00:25;;;;;;;7.33;1.30;;;;;;;;;;5069802;28;20110;-62
2023/12/27 00:02:51;;;;;;;6.67;1.03;;;;;;;;;;5070064;28;20025;-61
2023/12/27 00:05:16;;;;;;;4.73;1.17;;;;;;;;;;5072532;28;20032;-61
2023/12/27 00:07:41;;;;;;;4.68;1.00;;;;;;;;;;5070566;28;20025;-61
2023/12/27 00:10:06;;;;;;;3.47;1.00;;;;;;;;;;5072404;28;20028;-63
2023/12/27 00:12:31;;;;;;;5.10;1.15;;;;;;;;;;5072127;28;20507;-61
2023/12/27 00:14:57;;;;;;;3.55;1.10;;;;;;;;;;5058400;28;20086;-58
2023/12/27 00:17:22;;;;;;;4.87;1.00;;;;;;;;;;5062648;28;20393;-60
2023/12/27 00:19:47;;;;;;;3.40;0.93;;;;;;;;;;5070097;28;20020;-60
2023/12/27 00:22:14;;;;;;;3.85;0.85;;;;;;;;;;5062190;28;20029;-61
2023/12/27 00:24:39;;;;;;;5.60;0.93;;;;;;;;;;5068765;28;20492;-60
2023/12/27 00:27:04;;;;;;;5.15;0.98;;;;;;;;;;5066735;28;20056;-62
2023/12/27 00:29:30;;;;;;;3.55;1.00;;;;;;;;;;5065296;28;20446;-61
2023/12/27 00:31:55;;;;;;;3.37;0.80;;;;;;;;;;5062591;28;20017;-60
2023/12/27 00:34:20;;;;;;;6.83;1.07;;;;;;;;;;5061815;28;20442;-63
2023/12/27 00:36:45;;;;;;;3.88;0.80;;;;;;;;;;5070315;28;20531;-62
2023/12/27 00:39:11;;;;;;;7.30;1.02;;;;;;;;;;5070530;28;20569;-62
2023/12/27 00:41:36;;;;;;;7.03;1.13;;;;;;;;;;5068028;28;20020;-62
2023/12/27 00:44:01;;;;;;;4.23;1.00;;;;;;;;;;5063264;28;20028;-62
2023/12/27 00:46:27;;;;;;;5.28;0.90;;;;;;;;;;5071627;28;20422;-61
2023/12/27 00:48:52;;;;;;;5.85;0.95;;;;;;;;;;5057346;28;20029;-61
2023/12/27 00:51:18;;;;;;;4.68;0.85;;;;;;;;;;5071393;28;20504;-62
2023/12/27 00:53:43;;;;;;;6.07;0.80;;;;;;;;;;5071321;28;20029;-62
2023/12/27 00:56:08;;;;;;;3.55;0.80;;;;;;;;;;5071201;28;20024;-61
2023/12/27 00:58:34;;;;;;;5.93;1.40;;;;;;;;;;5071410;28;20028;-60
2023/12/27 01:00:59;;;;;;;3.00;0.65;;;;;;;;;;5055489;28;20369;-62
2023/12/27 01:03:24;;;;;;;4.67;0.67;;;;;;;;;;5054940;28;20100;-61
2023/12/27 01:05:49;;;;;;;6.93;0.70;;;;;;;;;;5063401;28;20028;-62
2023/12/27 01:08:14;;;;;;;6.65;0.85;;;;;;;;;;5065836;28;20020;-62
2023/12/27 01:10:39;;;;;;;2.40;0.60;;;;;;;;;;5070898;28;20028;-62
2023/12/27 01:13:05;;;;;;;4.18;0.80;;;;;;;;;;5066908;28;20033;-62
2023/12/27 01:15:30;;;;;;;6.97;0.90;;;;;;;;;;5065364;28;20511;-62
2023/12/27 01:17:55;;;;;;;5.07;0.70;;;;;;;;;;5069752;28;20062;-62
2023/12/27 01:20:20;;;;;;;6.00;1.00;;;;;;;;;;5063027;28;20025;-63
2023/12/27 01:22:47;;;;;;;4.00;0.70;;;;;;;;;;5068739;28;20521;-62
2023/12/27 01:25:12;;;;;;;7.97;0.90;;;;;;;;;;5061115;28;20063;-61
2023/12/27 01:27:37;;;;;;;5.27;0.70;;;;;;;;;;5072710;28;20029;-61
2023/12/27 01:30:03;;;;;;;3.43;0.60;;;;;;;;;;5073016;28;20330;-62
2023/12/27 01:32:28;;;;;;;2.92;0.50;;;;;;;;;;5070434;28;20024;-61
2023/12/27 01:34:53;;;;;;;5.07;0.60;;;;;;;;;;5067009;28;20012;-62
2023/12/27 01:37:18;;;;;;;6.27;0.60;;;;;;;;;;5051362;28;20481;-62
2023/12/27 01:39:44;;;;;;;5.57;1.00;;;;;;;;;;5070709;28;20028;-62
2023/12/27 01:42:09;;;;;;;3.42;0.55;;;;;;;;;;5067834;28;20029;-62
2023/12/27 01:44:34;;;;;;;9.17;0.70;;;;;;;;;;5065708;28;20021;-62
2023/12/27 01:46:59;;;;;;;4.45;1.00;;;;;;;;;;5068451;28;20380;-60
2023/12/27 01:49:24;;;;;;;7.27;0.70;;;;;;;;;;5062527;28;20169;-63
2023/12/27 01:51:49;;;;;;;5.93;0.93;;;;;;;;;;5060542;28;20480;-62
2023/12/27 01:54:15;;;;;;;7.50;0.67;;;;;;;;;;5063184;28;20024;-62
2023/12/27 01:56:42;;;;;;;4.63;0.60;;;;;;;;;;5054682;28;20863;-62
2023/12/27 01:59:07;;;;;;;6.65;0.88;;;;;;;;;;5050509;28;20067;-63
2023/12/27 02:01:32;;;;;;;6.25;0.70;;;;;;;;;;5058874;28;20044;-61
2023/12/27 02:03:58;;;;;;;3.30;0.53;;;;;;;;;;5068340;28;20539;-61
2023/12/27 02:06:23;;;;;;;4.15;0.57;;;;;;;;;;5068761;28;20012;-63
2023/12/27 02:08:49;;;;;;;6.28;0.60;;;;;;;;;;5070912;28;20161;-63
2023/12/27 02:11:14;;;;;;;2.97;0.40;;;;;;;;;;5070127;28;20013;-60
2023/12/27 02:13:42;;;;;;;5.45;0.75;;;;;;;;;;5063921;28;20025;-62
2023/12/27 02:16:07;;;;;;;5.65;0.68;;;;;;;;;;5058159;28;20055;-60
2023/12/27 02:18:33;;;;;;;7.15;0.90;;;;;;;;;;5063618;28;20048;-61
2023/12/27 02:20:58;;;;;;;7.68;0.82;;;;;;;;;;5067367;28;20425;-61
2023/12/27 02:23:24;;;;;;;5.37;0.70;;;;;;;;;;5059996;28;20024;-62
2023/12/27 02:25:51;;;;;;;7.70;0.70;;;;;;;;;;5070272;28;20435;-62
2023/12/27 02:28:16;;;;;;;3.92;0.70;;;;;;;;;;5067015;28;20029;-60
2023/12/27 02:30:41;;;;;;;12.03;0.97;;;;;;;;;;5059796;28;20032;-63
2023/12/27 02:33:06;;;;;;;5.78;0.82;;;;;;;;;;5069464;28;20032;-61
2023/12/27 02:35:31;;;;;;;7.03;0.80;;;;;;;;;;5070271;28;20392;-61
2023/12/27 02:37:57;;;;;;;3.45;0.55;;;;;;;;;;5068885;28;20094;-62
2023/12/27 02:40:22;;;;;;;4.40;0.55;;;;;;;;;;5058287;28;20016;-62
2023/12/27 02:42:47;;;;;;;5.07;0.60;;;;;;;;;;5070048;28;20070;-63
2023/12/27 02:45:12;;;;;;;5.40;0.73;;;;;;;;;;5066463;28;20035;-62
2023/12/27 02:47:38;;;;;;;6.25;1.13;;;;;;;;;;5074328;28;20075;-61
2023/12/27 02:50:03;;;;;;;4.33;0.70;;;;;;;;;;5062814;28;20537;-61
2023/12/27 02:52:28;;;;;;;7.57;0.73;;;;;;;;;;5064905;28;20025;-62
2023/12/27 02:54:55;;;;;;;3.65;0.68;;;;;;;;;;5062394;28;20035;-62
2023/12/27 02:57:20;;;;;;;5.43;0.77;;;;;;;;;;5070153;28;20016;-63
2023/12/27 02:59:45;;;;;;;5.25;0.60;;;;;;;;;;5062344;28;20107;-63
2023/12/27 03:02:10;;;;;;;3.05;0.60;;;;;;;;;;5067051;28;20039;-63
2023/12/27 03:04:35;;;;;;;3.33;0.57;;;;;;;;;;5070090;28;20063;-62
2023/12/27 03:07:01;;;;;;;3.72;0.65;;;;;;;;;;5070125;28;20503;-60
2023/12/27 03:09:26;;;;;;;5.95;0.90;;;;;;;;;;5070018;28;20528;-61
2023/12/27 03:11:51;;;;;;;8.23;0.97;;;;;;;;;;5067941;28;20031;-61
2023/12/27 03:14:16;;;;;;;8.57;0.80;;;;;;;;;;5068905;28;20027;-61
2023/12/27 03:16:41;;;;;;;6.20;0.83;;;;;;;;;;5069775;28;20033;-62
2023/12/27 03:19:06;;;;;;;4.45;0.70;;;;;;;;;;5069711;28;20398;-60
2023/12/27 03:21:32;;;;;;;8.32;0.95;;;;;;;;;;5067904;28;20450;-62
2023/12/27 03:23:57;;;;;;;4.40;0.70;;;;;;;;;;5069907;28;20024;-63
2023/12/27 03:26:22;;;;;;;3.17;0.60;;;;;;;;;;5072393;28;20134;-62
2023/12/27 03:28:47;;;;;;;7.27;0.70;;;;;;;;;;5073832;28;20419;-62
2023/12/27 03:31:13;;;;;;;5.55;0.80;;;;;;;;;;5075249;28;20391;-60
2023/12/27 03:33:38;;;;;;;6.82;0.60;;;;;;;;;;5074120;28;20024;-61
2023/12/27 03:36:03;;;;;;;4.80;0.70;;;;;;;;;;5073908;28;20536;-61
2023/12/27 03:38:28;;;;;;;5.22;0.85;;;;;;;;;;5072766;28;20431;-61
2023/12/27 03:40:54;;;;;;;5.35;0.77;;;;;;;;;;5073126;28;20047;-61
2023/12/27 03:43:19;;;;;;;6.82;0.93;;;;;;;;;;5072198;28;20028;-62
2023/12/27 03:45:50;;;;;;;3.53;0.63;;;;;;;;;;5073185;28;20081;-62
2023/12/27 03:48:15;;;;;;;4.35;0.68;;;;;;;;;;5072827;28;20032;-63
2023/12/27 03:50:40;;;;;;;6.15;0.60;;;;;;;;;;5072716;28;20035;-61
2023/12/27 03:53:06;;;;;;;4.17;0.70;;;;;;;;;;5063278;28;20952;-63
2023/12/27 03:55:31;;;;;;;3.15;0.70;;;;;;;;;;5053363;28;20040;-63
2023/12/27 03:57:56;;;;;;;4.95;0.70;;;;;;;;;;5066628;28;20024;-65
2023/12/27 04:00:21;;;;;;;4.80;0.85;;;;;;;;;;5069865;28;20036;-62
2023/12/27 04:02:46;;;;;;;3.80;0.53;;;;;;;;;;5061871;28;20021;-62
2023/12/27 04:05:15;;;;;;;3.97;0.60;;;;;;;;;;5072903;28;20025;-62
2023/12/27 04:07:40;;;;;;;5.72;0.75;;;;;;;;;;5055035;28;20800;-62
2023/12/27 04:10:05;;;;;;;5.10;0.80;;;;;;;;;;5052488;28;20017;-61
2023/12/27 04:12:31;;;;;;;6.78;0.73;;;;;;;;;;5066749;28;20079;-62
2023/12/27 04:14:56;;;;;;;7.87;0.80;;;;;;;;;;5072562;28;20032;-62
2023/12/27 04:17:21;;;;;;;4.63;0.90;;;;;;;;;;5063849;28;20115;-63
2023/12/27 04:19:46;;;;;;;5.53;0.93;;;;;;;;;;5072003;28;20017;-62
2023/12/27 04:22:11;;;;;;;5.13;0.80;;;;;;;;;;5070562;28;20107;-63
2023/12/27 04:24:36;;;;;;;4.55;0.70;;;;;;;;;;5072673;28;20063;-62
2023/12/27 04:27:02;;;;;;;4.10;0.73;;;;;;;;;;5063430;28;20094;-62
2023/12/27 04:29:27;;;;;;;6.78;0.90;;;;;;;;;;5070182;28;20404;-62
2023/12/27 04:31:52;;;;;;;8.33;2.30;;;;;;;;;;5067284;28;20033;-62
2023/12/27 04:34:18;;;;;;;4.32;0.88;;;;;;;;;;5072573;28;20024;-62
2023/12/27 04:36:43;;;;;;;5.60;1.00;;;;;;;;;;5070708;28;20028;-62
2023/12/27 04:39:08;;;;;;;4.47;0.90;;;;;;;;;;5070977;28;20016;-62
2023/12/27 04:41:33;;;;;;;6.10;0.80;;;;;;;;;;5071747;28;20047;-62
2023/12/27 04:43:59;;;;;;;4.88;0.90;;;;;;;;;;5071781;28;20021;-61
2023/12/27 04:46:24;;;;;;;5.17;0.70;;;;;;;;;;5071990;28;20480;-61
2023/12/27 04:48:49;;;;;;;4.95;1.00;;;;;;;;;;5071512;28;20471;-62
2023/12/27 04:51:14;;;;;;;6.00;1.05;;;;;;;;;;5070759;28;20368;-62
2023/12/27 04:53:40;;;;;;;5.00;1.20;;;;;;;;;;5066858;28;20017;-62
2023/12/27 04:56:05;;;;;;;7.35;1.13;;;;;;;;;;5069888;28;20013;-62
2023/12/27 04:58:35;;;;;;;5.67;1.07;;;;;;;;;;5071576;28;20034;-62
2023/12/27 05:01:00;;;;;;;6.47;1.50;;;;;;;;;;5071591;28;20809;-61
2023/12/27 05:03:27;;;;;;;8.97;1.47;;;;;;;;;;5070790;28;20040;-62
2023/12/27 05:05:52;;;;;;;;;;;;;;;;;;5073277;28;20069;-62
2023/12/27 05:08:17;;;;;;;6.60;1.17;;;;;;;;;;5069381;28;19960;-61
2023/12/27 05:10:42;;;;;;;9.35;1.48;;;;;;;;;;5073190;28;20024;-61
2023/12/27 05:13:08;;;;;;;9.47;1.30;;;;;;;;;;5060628;28;20033;-63
2023/12/27 05:15:33;;;;;;;6.75;1.30;;;;;;;;;;5072630;28;20473;-62
2023/12/27 05:17:58;;;;;;;6.82;1.20;;;;;;;;;;5067017;28;20063;-61
2023/12/27 05:20:23;;;;;;;3.80;1.00;;;;;;;;;;5066405;28;20078;-61
2023/12/27 05:22:48;;;;;;;7.07;1.10;;;;;;;;;;5068458;28;20033;-61
2023/12/27 05:25:13;;;;;;;7.38;1.10;;;;;;;;;;5068971;28;20082;-62
2023/12/27 05:27:38;;;;;;;5.17;1.30;;;;;;;;;;5071303;28;20028;-62
2023/12/27 05:30:04;;;;;;;6.15;1.17;;;;;;;;;;5071066;28;20037;-62
2023/12/27 05:32:29;;;;;;;7.68;1.13;;;;;;;;;;5070087;28;20116;-61
2023/12/27 05:34:54;;;;;;;6.87;1.20;;;;;;;;;;5069765;28;20024;-61
2023/12/27 05:37:20;;;;;;;6.70;1.10;;;;;;;;;;5069116;28;20028;-61
2023/12/27 05:39:45;;;;;;;6.05;1.17;;;;;;;;;;5070731;28;20020;-62
2023/12/27 05:42:11;;;;;;;8.80;1.40;;;;;;;;;;5070452;28;20036;-62
2023/12/27 05:44:36;;;;;;;6.80;1.30;;;;;;;;;;5070666;28;20024;-62
2023/12/27 05:47:01;;;;;;;5.07;1.15;;;;;;;;;;5066273;28;20039;-62
2023/12/27 05:49:26;;;;;;;5.25;1.00;;;;;;;;;;5060088;28;20435;-60
2023/12/27 05:51:52;;;;;;;4.75;0.88;;;;;;;;;;5069327;28;20537;-61
2023/12/27 05:54:18;;;;;;;3.73;0.83;;;;;;;;;;5070672;28;20028;-61
2023/12/27 05:56:43;;;;;;;5.07;1.58;;;;;;;;;;5071111;28;20073;-61
2023/12/27 05:59:08;;;;;;;6.30;1.40;;;;;;;;;;5071010;28;20028;-62
2023/12/27 06:01:33;;;;;;;7.00;1.37;;;;;;;;;;5070072;28;20025;-62
2023/12/27 06:03:59;;;;;;;5.28;1.40;;;;;;;;;;5070964;28;20028;-63
2023/12/27 06:06:24;;;;;;;4.55;1.15;;;;;;;;;;5072034;28;20012;-63
2023/12/27 06:08:49;;;;;;;6.05;1.13;;;;;;;;;;5070538;28;20024;-62
2023/12/27 06:11:14;;;;;;;5.72;1.10;;;;;;;;;;5070301;28;20086;-60
2023/12/27 06:13:39;;;;;;;7.87;1.50;;;;;;;;;;5070419;28;20036;-61
2023/12/27 06:16:05;;;;;;;5.30;1.52;;;;;;;;;;5058332;28;20033;-61
2023/12/27 06:18:30;;;;;;;7.15;1.30;;;;;;;;;;5067141;28;20017;-61
2023/12/27 06:20:55;;;;;;;6.88;1.70;;;;;;;;;;5067121;28;20032;-61
2023/12/27 06:23:20;;;;;;;6.57;1.52;;;;;;;;;;5063276;28;20500;-62
2023/12/27 06:25:45;;;;;;;7.03;1.23;;;;;;;;;;5058341;28;20082;-62
2023/12/27 06:28:11;;;;;;;5.22;1.40;;;;;;;;;;5061903;28;20900;-61
2023/12/27 06:30:36;;;;;;;4.97;1.40;;;;;;;;;;5062889;28;20479;-61
2023/12/27 06:33:01;;;;;;;6.13;1.58;;;;;;;;;;5058670;28;20063;-61
2023/12/27 06:35:26;;;;;;;7.37;1.77;;;;;;;;;;5065401;28;20023;-62
2023/12/27 06:37:51;;;;;;;6.72;1.50;;;;;;;;;;5057955;28;20033;-61
2023/12/27 06:40:17;;;;;;;5.57;1.50;;;;;;;;;;5061756;28;20831;-61
2023/12/27 06:42:42;;;;;;;7.57;1.77;;;;;;;;;;5058226;28;20028;-61
2023/12/27 06:45:07;;;;;;;5.30;1.57;;;;;;;;;;5056710;28;20040;-62
2023/12/27 06:47:32;;;;;;;7.07;1.77;;;;;;;;;;5054938;28;20049;-62
2023/12/27 06:49:57;;;;;;;6.57;1.80;;;;;;;;;;5057508;28;20039;-61
2023/12/27 06:52:23;;;;;;;9.15;1.85;;;;;;;;;;5051335;28;20556;-61
2023/12/27 06:54:48;;;;;;;7.10;1.40;;;;;;;;;;5058068;28;20025;-62
2023/12/27 06:57:13;;;;;;;8.20;1.97;;;;;;;;;;5047901;28;20484;-61
2023/12/27 06:59:38;;;;;;;6.50;1.70;;;;;;;;;;5055809;28;20551;-62
2023/12/27 07:02:07;;;;;;;5.43;1.80;;;;;;;;;;5067405;28;20008;-61
2023/12/27 07:04:32;;;;;;;6.35;1.88;;;;;;;;;;5071636;28;20029;-62
2023/12/27 07:06:57;;;;;;;7.75;1.77;;;;;;;;;;5067528;28;20023;-62
2023/12/27 07:09:23;;;;;;;6.72;1.95;;;;;;;;;;5067524;28;20068;-63
2023/12/27 07:11:48;;;;;;;6.10;1.60;;;;;;;;;;5069331;28;20024;-62
2023/12/27 07:14:13;;;;;;;7.70;1.60;;;;;;;;;;5057084;28;20054;-61
2023/12/27 07:16:39;;;;;;;5.22;1.30;;;;;;;;;;5059576;28;20409;-62
2023/12/27 07:19:04;;;;;;;7.63;1.50;;;;;;;;;;5067172;28;20391;-62
2023/12/27 07:21:30;;;;;;;8.13;1.80;;;;;;;;;;5066065;28;20304;-61
2023/12/27 07:23:55;;;;;;;8.73;1.58;;;;;;;;;;5056164;28;20091;-62
2023/12/27 07:26:20;;;;;;;5.45;1.70;;;;;;;;;;5067679;28;20028;-61
2023/12/27 07:28:45;;;;;;;6.00;1.75;;;;;;;;;;5052358;28;20044;-62
2023/12/27 07:31:10;;;;;;;6.23;1.77;;;;;;;;;;5063459;28;20104;-62
2023/12/27 07:33:36;;;;;;;7.00;1.52;;;;;;;;;;5058144;28;20518;-62
2023/12/27 07:36:02;;;;;;;6.50;1.70;;;;;;;;;;5061215;28;20112;-61
2023/12/27 07:38:27;;;;;;;6.00;1.58;;;;;;;;;;5058139;28;20099;-62
2023/12/27 07:40:52;;;;;;;6.63;1.50;;;;;;;;;;5068350;28;20548;-61
2023/12/27 07:43:20;;;;;;;7.20;1.77;;;;;;;;;;5070444;28;20104;-62
2023/12/27 07:45:45;;;;;;;5.13;1.65;;;;;;;;;;5067531;28;20043;-61
2023/12/27 07:48:10;;;;;;;6.47;1.90;;;;;;;;;;5068289;28;20523;-62
2023/12/27 07:50:37;;;;;;;7.53;1.93;;;;;;;;;;5051263;28;20154;-61
2023/12/27 07:53:02;;;;;;;8.70;1.60;;;;;;;;;;5060243;28;20050;-59
2023/12/27 07:55:29;;;;;;;6.18;1.98;;;;;;;;;;5059965;28;20032;-61
2023/12/27 07:57:54;;;;;;;7.75;2.08;;;;;;;;;;5060250;28;20396;-61
2023/12/27 08:00:19;;;;;;;7.10;2.05;;;;;;;;;;5058908;28;20094;-61
2023/12/27 08:02:44;;;;;;;6.17;1.60;;;;;;;;;;5064120;28;20104;-61
2023/12/27 08:05:10;;;;;;;5.77;1.80;;;;;;;;;;5054964;28;20021;-62
2023/12/27 08:07:35;;;;;;;8.65;2.40;;;;;;;;;;5061470;28;20580;-61
2023/12/27 08:10:00;;;;;;;8.02;1.83;;;;;;;;;;5055271;28;20246;-61
2023/12/27 08:12:25;;;;;;;11.30;2.50;;;;;;;;;;5074186;28;20012;-62
2023/12/27 08:14:50;;;;;;;10.32;2.30;;;;;;;;;;5078459;28;20050;-60
2023/12/27 08:17:15;;;;;;;7.00;2.00;;;;;;;;;;5076086;28;20028;-60
2023/12/27 08:19:41;;;;;;;7.45;2.60;;;;;;;;;;5068202;28;20425;-61
2023/12/27 08:22:06;;;;;;;6.77;2.30;;;;;;;;;;5067613;28;20032;-62
2023/12/27 08:24:31;;;;;;;8.73;2.30;;;;;;;;;;5053906;28;20033;-59
2023/12/27 08:26:56;;;;;;;7.07;2.80;;;;;;;;;;5062796;28;20094;-59
2023/12/27 08:29:22;;;;;;;7.77;2.50;;;;;;;;;;5064118;28;20481;-59
2023/12/27 08:31:47;;;;;;;7.40;2.60;;;;;;;;;;5062236;28;20020;-62
2023/12/27 08:34:12;;;;;;;8.85;2.60;;;;;;;;;;5069001;28;20434;-63
2023/12/27 08:36:39;;;;;;;7.67;2.60;;;;;;;;;;5066392;28;20104;-61
2023/12/27 08:39:04;;;;;;;8.60;2.80;;;;;;;;;;5066578;28;20048;-62
2023/12/27 08:41:29;;;;;;;8.67;3.10;;;;;;;;;;5073390;28;20376;-62
2023/12/27 08:43:54;;;;;;;8.60;3.00;;;;;;;;;;5060502;28;20973;-62
2023/12/27 08:46:20;;;;;;;11.80;2.90;;;;;;;;;;5055484;28;20013;-61
2023/12/27 08:48:46;;;;;;;12.48;3.22;;;;;;;;;;5061000;28;20029;-62
2023/12/27 08:51:11;;;;;;;10.73;3.17;;;;;;;;;;5057673;28;20021;-62
2023/12/27 08:53:36;;;;;;;8.60;3.10;;;;;;;;;;5064019;28;20021;-62
2023/12/27 08:56:02;;;;;;;8.90;3.33;;;;;;;;;;5056818;28;20496;-61
2023/12/27 08:58:27;;;;;;;8.35;2.80;;;;;;;;;;5070334;28;20044;-62
2023/12/27 09:00:53;;;;;;;9.63;3.00;;;;;;;;;;5071400;28;20411;-61
2023/12/27 09:03:18;;;;;;;11.75;3.15;;;;;;;;;;5068899;28;20096;-62
2023/12/27 09:05:43;;;;;;;9.00;3.08;;;;;;;;;;5067236;28;20036;-61
2023/12/27 09:08:09;;;;;;;9.98;3.42;;;;;;;;;;5067924;28;20401;-60
2023/12/27 09:10:35;;;;;;;10.43;3.35;;;;;;;;;;5067941;28;20020;-61
2023/12/27 09:13:00;;;;;;;10.82;3.20;;;;;;;;;;5063240;28;20021;-61
2023/12/27 09:15:25;;;;;;;8.35;3.13;;;;;;;;;;5065791;28;20078;-60
2023/12/27 09:17:50;;;;;;;10.88;3.38;;;;;;;;;;5070754;28;20961;-61
2023/12/27 09:20:16;;;;;;;11.18;3.63;;;;;;;;;;5070334;28;20021;-62
2023/12/27 09:22:41;;;;;;;11.57;3.40;;;;;;;;;;5076137;28;20267;-61
2023/12/27 09:25:06;;;;;;;10.13;2.90;;;;;;;;;;5072299;28;20020;-60
2023/12/27 09:27:31;;;;;;;12.40;2.97;;;;;;;;;;5073543;28;20104;-61
2023/12/27 09:29:56;;;;;;;12.63;2.65;;;;;;;;;;5066307;28;20215;-61
2023/12/27 09:32:21;;;;;;;7.20;2.60;;;;;;;;;;5057565;28;20052;-62
2023/12/27 09:34:47;;;;;;;8.25;2.45;;;;;;;;;;5069175;28;20484;-61
2023/12/27 09:37:12;;;;;;;9.90;2.20;;;;;;;;;;5070135;28;20034;-63
2023/12/27 09:39:37;;;;;;;9.30;2.30;;;;;;;;;;5068315;28;20056;-62
2023/12/27 09:42:02;;;;;;;5.50;2.40;;;;;;;;;;5070269;28;20021;-62
2023/12/27 09:44:28;;;;;;;7.80;2.10;;;;;;;;;;5058006;28;20032;-62
2023/12/27 09:46:55;;;;;;;8.82;2.30;;;;;;;;;;5050903;28;20447;-62
2023/12/27 09:49:20;;;;;;;;;;;;;;;;;;5056806;28;20099;-61
2023/12/27 09:51:46;;;;;;;6.55;2.10;;;;;;;;;;5069988;28;20406;-61
2023/12/27 09:54:13;;;;;;;5.63;2.10;;;;;;;;;;5063606;28;20048;-63
2023/12/27 09:56:38;;;;;;;8.07;2.03;;;;;;;;;;5071015;28;20032;-63
2023/12/27 09:59:07;;;;;;;8.50;2.53;;;;;;;;;;5070965;28;20440;-63
2023/12/27 10:01:35;;;;;;;8.07;2.08;;;;;;;;;;5070144;28;20025;-63
2023/12/27 10:04:10;;;;;;;7.82;2.50;;;;;;;;;;5060866;28;20554;-63
2023/12/27 10:06:41;;;;;;;7.18;2.78;;;;;;;;;;5050529;28;20028;-62
2023/12/27 10:09:07;;;;;;;6.88;2.13;;;;;;;;;;5061647;28;20438;-63
2023/12/27 10:11:33;;;;;;;9.32;2.45;;;;;;;;;;5060547;28;20033;-63
2023/12/27 10:13:58;;;;;;;8.95;2.45;;;;;;;;;;5066174;28;20075;-64
2023/12/27 10:16:23;;;;;;;9.90;2.42;;;;;;;;;;5054521;28;20599;-61
2023/12/27 10:18:48;;;;;;;5.97;2.33;;;;;;;;;;5050559;28;20491;-62
2023/12/27 10:21:14;;;;;;;7.73;2.17;;;;;;;;;;5053836;28;20039;-62
2023/12/27 10:23:40;;;;;;;9.65;2.00;;;;;;;;;;5057785;28;20021;-62
2023/12/27 10:26:05;;;;;;;8.40;2.30;;;;;;;;;;5058315;28;20099;-63
2023/12/27 10:28:31;;;;;;;5.13;2.00;;;;;;;;;;5070109;28;20082;-61
2023/12/27 10:30:56;;;;;;;8.63;2.55;;;;;;;;;;5069414;28;20021;-61
2023/12/27 10:33:22;;;;;;;8.23;2.23;;;;;;;;;;5070153;28;20070;-62
2023/12/27 10:35:47;;;;;;;6.95;1.95;;;;;;;;;;5070572;28;20043;-63
2023/12/27 10:38:12;;;;;;;7.07;1.88;;;;;;;;;;5074151;28;20067;-63
2023/12/27 10:40:39;;;;;;;5.55;2.00;;;;;;;;;;5074085;28;20472;-63
2023/12/27 10:43:04;;;;;;;;;;;;;;;;;;5067960;28;20017;-63
2023/12/27 10:45:29;;;;;;;6.28;1.90;;;;;;;;;;5073291;28;19915;-63
2023/12/27 10:48:01;;;;;;;6.95;1.85;;;;;;;;;;5070984;28;20496;-61
2023/12/27 10:50:27;;;;;;;7.88;1.77;;;;;;;;;;5067298;28;20104;-62
2023/12/27 10:53:06;;;;;;;9.82;1.77;;;;;;;;;;5073486;28;20024;-61
2023/12/27 10:55:32;;;;;;;7.78;2.00;;;;;;;;;;5071656;28;20399;-62
2023/12/27 10:57:58;;;;;;;13.10;2.10;;;;;;;;;;5073483;28;20024;-63
2023/12/27 11:00:23;;;;;;;9.35;2.10;;;;;;;;;;5072105;28;20020;-62
2023/12/27 11:02:49;;;;;;;6.35;1.90;;;;;;;;;;5076107;28;20438;-63
2023/12/27 11:05:15;;;;;;;6.32;1.80;;;;;;;;;;5077515;28;20170;-63
2023/12/27 11:07:42;;;;;;;7.50;1.73;;;;;;;;;;5075252;28;20041;-62
2023/12/27 11:10:07;;;;;;;7.28;1.90;;;;;;;;;;5082147;28;20068;-63
2023/12/27 11:12:34;;;;;;;7.47;2.13;;;;;;;;;;5076155;28;20099;-63
2023/12/27 11:15:02;;;;;;;7.78;2.30;;;;;;;;;;5075273;28;20125;-63
2023/12/27 11:17:28;;;;;;;6.15;1.60;;;;;;;;;;5066505;28;20032;-62
2023/12/27 11:19:54;;;;;;;5.68;1.80;;;;;;;;;;5062048;28;20008;-63
2023/12/27 11:22:19;;;;;;;4.82;1.80;;;;;;;;;;5069659;28;20074;-63
2023/12/27 11:24:44;;;;;;;7.73;1.83;;;;;;;;;;5073150;28;20031;-63
2023/12/27 11:27:09;;;;;;;9.30;2.17;;;;;;;;;;5072466;28;20077;-62
2023/12/27 11:29:36;;;;;;;8.33;2.10;;;;;;;;;;5087480;28;20036;-63
2023/12/27 11:32:01;;;;;;;6.80;1.80;;;;;;;;;;5079622;28;20475;-63
2023/12/27 11:34:27;;;;;;;5.63;1.60;;;;;;;;;;5087033;28;20072;-65
2023/12/27 11:36:52;;;;;;;5.57;1.80;;;;;;;;;;5074223;28;20088;-62
2023/12/27 11:39:23;;;;;;;11.57;1.73;;;;;;;;;;5065456;28;20020;-63
2023/12/27 11:41:48;;;;;;;6.03;1.50;;;;;;;;;;5068818;28;20016;-63
2023/12/27 11:44:14;;;;;;;7.63;1.63;;;;;;;;;;5059722;28;20500;-62
2023/12/27 11:46:41;;;;;;;8.52;1.63;;;;;;;;;;5067956;28;20485;-63
2023/12/27 11:49:06;;;;;;;9.27;1.73;;;;;;;;;;5067869;28;20139;-62
2023/12/27 11:51:36;;;;;;;6.90;1.70;;;;;;;;;;5064387;28;20024;-62
2023/12/27 11:54:02;;;;;;;6.43;1.40;;;;;;;;;;5055607;28;20028;-63
2023/12/27 11:56:31;;;;;;;7.55;1.52;;;;;;;;;;5072649;28;20097;-63
2023/12/27 11:58:57;;;;;;;8.25;1.30;;;;;;;;;;5061692;28;20017;-63
2023/12/27 12:01:26;;;;;;;6.60;1.30;;;;;;;;;;5072507;28;20064;-63
2023/12/27 12:04:08;;;;;;;6.40;1.27;;;;;;;;;;5070983;28;20060;-62
2023/12/27 12:06:52;;;;;;;6.68;1.30;;;;;;;;;;5071909;28;20020;-62
2023/12/27 12:09:18;;;;;;;6.90;1.40;;;;;;;;;;5072488;28;20033;-63
2023/12/27 12:11:44;;;;;;;7.25;1.30;;;;;;;;;;5072025;28;20023;-63
2023/12/27 12:14:09;;;;;;;8.77;1.40;;;;;;;;;;5070526;28;20016;-64
2023/12/27 12:16:36;;;;;;;8.67;1.23;;;;;;;;;;5072084;28;20043;-63
2023/12/27 12:19:01;;;;;;;;;;;;;;;;;;5073185;28;20016;-64
2023/12/27 12:21:28;;;;;;;8.65;1.40;;;;;;;;;;5073184;28;19909;-62
2023/12/27 12:23:53;;;;;;;;;;;;;;;;;;5067806;28;20029;-64
2023/12/27 12:26:18;;;;;;;8.27;1.20;;;;;;;;;;5072163;28;20407;-61
2023/12/27 12:28:52;;;;;;;5.53;1.20;;;;;;;;;;5062408;28;20111;-63
2023/12/27 12:31:18;;;;;;;7.22;1.27;;;;;;;;;;5058318;28;20379;-64
2023/12/27 12:33:43;;;;;;;9.53;1.10;;;;;;;;;;5058523;28;20025;-63
2023/12/27 12:36:08;;;;;;;5.75;1.00;;;;;;;;;;5071848;28;20025;-63
2023/12/27 12:38:33;;;;;;;7.25;1.33;;;;;;;;;;5071876;28;20024;-63
2023/12/27 12:40:58;;;;;;;7.93;1.10;;;;;;;;;;5071795;28;20055;-63
2023/12/27 12:43:24;;;;;;;8.25;1.38;;;;;;;;;;5068405;28;20032;-62
2023/12/27 12:45:49;;;;;;;6.47;1.20;;;;;;;;;;5051484;28;20036;-63
2023/12/27 12:48:14;;;;;;;4.73;1.10;;;;;;;;;;5063984;28;20060;-63
2023/12/27 12:50:39;;;;;;;5.20;1.10;;;;;;;;;;5071689;28;20117;-64
2023/12/27 12:53:14;;;;;;;5.13;1.30;;;;;;;;;;5071361;28;20030;-63
2023/12/27 12:55:41;;;;;;;5.72;1.30;;;;;;;;;;5071767;28;20153;-63
2023/12/27 12:58:07;;;;;;;7.75;1.45;;;;;;;;;;5070832;28;20031;-63
2023/12/27 13:00:32;;;;;;;5.97;1.15;;;;;;;;;;5070859;28;20099;-64
2023/12/27 13:02:57;;;;;;;5.63;1.20;;;;;;;;;;5066953;28;20384;-62
2023/12/27 13:05:22;;;;;;;6.43;1.48;;;;;;;;;;5065421;28;20455;-62
2023/12/27 13:07:47;;;;;;;7.38;1.38;;;;;;;;;;5071488;28;20023;-63
2023/12/27 13:10:12;;;;;;;5.00;1.30;;;;;;;;;;5064596;28;20056;-63
2023/12/27 13:12:38;;;;;;;6.83;1.40;;;;;;;;;;5068830;28;20013;-64
2023/12/27 13:15:03;;;;;;;4.07;1.33;;;;;;;;;;5067056;28;20025;-63
2023/12/27 13:17:28;;;;;;;5.57;1.45;;;;;;;;;;5071417;28;20064;-64
2023/12/27 13:19:54;;;;;;;6.35;1.80;;;;;;;;;;5068846;28;20086;-62
2023/12/27 13:22:19;;;;;;;5.93;1.23;;;;;;;;;;5062766;28;20028;-62
2023/12/27 13:24:44;;;;;;;6.03;1.50;;;;;;;;;;5070940;28;20480;-62
2023/12/27 13:27:09;;;;;;;5.88;1.40;;;;;;;;;;5071072;28;20017;-62
2023/12/27 13:29:34;;;;;;;4.88;1.30;;;;;;;;;;5070960;28;20543;-62
2023/12/27 13:32:00;;;;;;;7.53;1.40;;;;;;;;;;5070340;28;20139;-62
2023/12/27 13:34:25;;;;;;;7.28;1.40;;;;;;;;;;5070523;28;20473;-62
2023/12/27 13:36:51;;;;;;;6.60;1.20;;;;;;;;;;5070665;28;20067;-63
2023/12/27 13:39:16;;;;;;;6.18;1.50;;;;;;;;;;5071106;28;20024;-62
2023/12/27 13:41:41;;;;;;;7.60;1.63;;;;;;;;;;5070401;28;20514;-63
2023/12/27 13:44:06;;;;;;;8.73;1.30;;;;;;;;;;5067268;28;20012;-62
2023/12/27 13:46:33;;;;;;;4.57;1.27;;;;;;;;;;5065067;28;20036;-62
2023/12/27 13:48:58;;;;;;;7.78;1.77;;;;;;;;;;5069006;28;20068;-62
2023/12/27 13:51:23;;;;;;;6.00;1.98;;;;;;;;;;5066818;28;20040;-62
2023/12/27 13:53:48;;;;;;;7.03;1.80;;;;;;;;;;5070405;28;20029;-62
2023/12/27 13:56:15;;;;;;;9.93;2.10;;;;;;;;;;5071119;28;20013;-62
2023/12/27 13:58:42;;;;;;;11.32;2.00;;;;;;;;;;5069540;28;20376;-62
2023/12/27 14:01:07;;;;;;;8.38;1.80;;;;;;;;;;5066056;28;20039;-63
2023/12/27 14:03:32;;;;;;;4.93;1.75;;;;;;;;;;5060990;28;20446;-63
2023/12/27 14:05:57;;;;;;;6.43;1.70;;;;;;;;;;5064111;28;20035;-63
2023/12/27 14:08:22;;;;;;;8.90;1.90;;;;;;;;;;5071856;28;20089;-62
2023/12/27 14:10:47;;;;;;;10.23;2.55;;;;;;;;;;5071585;28;20028;-63
2023/12/27 14:13:13;;;;;;;7.13;1.83;;;;;;;;;;5071919;28;20036;-62
2023/12/27 14:15:38;;;;;;;6.53;1.60;;;;;;;;;;5071556;28;20472;-62
2023/12/27 14:18:04;;;;;;;7.10;1.83;;;;;;;;;;5065810;28;20024;-62
2023/12/27 14:20:31;;;;;;;6.82;1.73;;;;;;;;;;5071426;28;20110;-62
2023/12/27 14:22:56;;;;;;;7.90;1.95;;;;;;;;;;5068500;28;20025;-62
2023/12/27 14:25:21;;;;;;;6.60;1.80;;;;;;;;;;5070917;28;20012;-61
2023/12/27 14:27:46;;;;;;;6.77;2.23;;;;;;;;;;5070739;28;20759;-64
2023/12/27 14:30:12;;;;;;;6.97;2.00;;;;;;;;;;5070353;28;20037;-64
2023/12/27 14:32:37;;;;;;;7.80;1.88;;;;;;;;;;5064905;28;20415;-64